Terminal Aerodrome Forecast
Issued by NWS Omaha/Valley, NE

Home | Current Version | Previous Version | Text Only | Print | Product List | Glossary On
Versions: 1 2 3 4 5 6 7 8 9 10 11 12 13 14 15 16 17 18 19 20 21 22 23 24 25 26 27 28 29 30 31 32 33 34 35 36 37 38 39 40 41
362
FTUS43 KOAX 230903 AAC
TAFLNK
TAF AMD
KLNK 230903Z 2309/2406 15013KT P6SM OVC035 WS020/17038KT
     FM231300 15014G23KT P6SM OVC020 WS020/18045KT
      TEMPO 2314/2317 5SM HZ OVC009
     FM231900 17017G25KT P6SM OVC030
     FM232200 17017G25KT P6SM SCT035 BKN200
     FM240300 18013G22KT P6SM SCT020 BKN120=

USA.gov is the U.S. government's official web portal to all federal, state and local government web resources and services.